Time;durP1;ratioP1;P1;durP2;ratioP2;P2;SDS_P1;SDS_P2;PMS_P1;PMS_P2;Temp;Humidity;BMP_temperature;BMP_pressure;BME280_temperature;BME280_humidity;BME280_pressure;Samples;Min_cycle;Max_cycle;Signal;HPM_P1;HPM_P2
2023/10/03 00:00:24;;;;;;;66.13;30.63;;;;;;;;;;5079237;28;20055;-58
2023/10/03 00:02:57;;;;;;;63.75;30.35;;;;;;;;;;5080390;28;20040;-58
2023/10/03 00:05:28;;;;;;;61.38;30.05;;;;;;;;;;5068356;28;20051;-58
2023/10/03 00:07:54;;;;;;;66.25;32.00;;;;;;;;;;5082556;28;20111;-58
2023/10/03 00:10:21;;;;;;;61.72;28.90;;;;;;;;;;5069148;28;20064;-58
2023/10/03 00:12:48;;;;;;;55.05;29.33;;;;;;;;;;5068831;28;20493;-58
2023/10/03 00:15:24;;;;;;;56.72;29.35;;;;;;;;;;5071447;28;20329;-58
2023/10/03 00:17:51;;;;;;;60.28;29.70;;;;;;;;;;5080383;28;20055;-58
2023/10/03 00:20:18;;;;;;;57.67;29.98;;;;;;;;;;5087253;28;20092;-58
2023/10/03 00:22:45;;;;;;;60.10;28.30;;;;;;;;;;5085437;28;20037;-58
2023/10/03 00:25:17;;;;;;;56.22;27.88;;;;;;;;;;5082725;28;20626;-58
2023/10/03 00:27:45;;;;;;;52.58;28.00;;;;;;;;;;5086615;28;20075;-58
2023/10/03 00:30:12;;;;;;;51.00;26.88;;;;;;;;;;5088446;28;20052;-58
2023/10/03 00:32:41;;;;;;;57.10;28.25;;;;;;;;;;5085534;28;20071;-58
2023/10/03 00:35:08;;;;;;;52.92;28.83;;;;;;;;;;5078790;28;20040;-58
2023/10/03 00:37:35;;;;;;;55.97;29.27;;;;;;;;;;5086829;28;20197;-58
2023/10/03 00:40:18;;;;;;;60.38;28.75;;;;;;;;;;5079186;28;20471;-62
2023/10/03 00:42:45;;;;;;;55.65;28.75;;;;;;;;;;5082038;28;20093;-58
2023/10/03 00:45:11;;;;;;;55.47;27.92;;;;;;;;;;5077085;28;20477;-58
2023/10/03 00:47:37;;;;;;;54.03;28.27;;;;;;;;;;5074705;28;20044;-57
2023/10/03 00:50:06;;;;;;;55.13;27.65;;;;;;;;;;5077025;28;20123;-58
2023/10/03 00:52:32;;;;;;;51.88;26.98;;;;;;;;;;5076474;28;20052;-57
2023/10/03 00:55:00;;;;;;;52.40;27.67;;;;;;;;;;5077274;28;20158;-58
2023/10/03 00:57:27;;;;;;;51.72;27.50;;;;;;;;;;5077478;28;20448;-58
2023/10/03 00:59:57;;;;;;;50.88;26.63;;;;;;;;;;5078456;28;20048;-58
2023/10/03 01:02:24;;;;;;;49.97;27.95;;;;;;;;;;5076202;28;20040;-58
2023/10/03 01:04:50;;;;;;;55.03;27.08;;;;;;;;;;5078594;28;20371;-58
2023/10/03 01:07:16;;;;;;;51.47;25.63;;;;;;;;;;5080364;28;20111;-58
2023/10/03 01:09:42;;;;;;;52.30;25.73;;;;;;;;;;5077981;28;20051;-58
2023/10/03 01:12:08;;;;;;;45.42;24.08;;;;;;;;;;5075505;28;20044;-58
2023/10/03 01:14:34;;;;;;;48.20;24.52;;;;;;;;;;5075319;28;20055;-58
2023/10/03 01:17:02;;;;;;;53.25;25.60;;;;;;;;;;5075984;28;20098;-58
2023/10/03 01:19:31;;;;;;;52.63;24.75;;;;;;;;;;5081239;28;20125;-58
2023/10/03 01:21:57;;;;;;;48.80;25.23;;;;;;;;;;5083358;28;20467;-58
2023/10/03 01:24:26;;;;;;;47.50;24.48;;;;;;;;;;5074252;28;20570;-58
2023/10/03 01:26:53;;;;;;;47.97;24.42;;;;;;;;;;5060342;28;20044;-58
2023/10/03 01:29:23;;;;;;;53.35;26.08;;;;;;;;;;5073558;28;20088;-58
2023/10/03 01:31:50;;;;;;;49.10;24.40;;;;;;;;;;5073882;28;20395;-58
2023/10/03 01:34:17;;;;;;;51.80;26.67;;;;;;;;;;5067806;28;20041;-58
2023/10/03 01:36:46;;;;;;;45.33;24.40;;;;;;;;;;5076627;28;20368;-58
2023/10/03 01:39:13;;;;;;;51.33;25.50;;;;;;;;;;5078596;28;20415;-58
2023/10/03 01:41:40;;;;;;;51.25;25.45;;;;;;;;;;5084518;28;20040;-58
2023/10/03 01:44:07;;;;;;;51.83;26.05;;;;;;;;;;5069942;28;20164;-58
2023/10/03 01:46:33;;;;;;;44.55;24.65;;;;;;;;;;5070117;28;20032;-57
2023/10/03 01:49:00;;;;;;;49.83;24.83;;;;;;;;;;5076614;28;20044;-58
2023/10/03 01:51:26;;;;;;;47.35;24.63;;;;;;;;;;5074134;28;20040;-58
2023/10/03 01:53:55;;;;;;;53.65;25.67;;;;;;;;;;5070880;28;20135;-58
2023/10/03 01:56:22;;;;;;;53.95;25.33;;;;;;;;;;5074698;28;20124;-58
2023/10/03 01:58:49;;;;;;;50.92;24.20;;;;;;;;;;5077907;28;20039;-58
2023/10/03 02:01:15;;;;;;;50.03;25.83;;;;;;;;;;5066197;28;20100;-58
2023/10/03 02:03:42;;;;;;;48.60;25.35;;;;;;;;;;5074607;28;20048;-57
2023/10/03 02:06:08;;;;;;;46.42;24.90;;;;;;;;;;5080407;28;20391;-59
2023/10/03 02:08:35;;;;;;;48.20;25.10;;;;;;;;;;5084926;28;20170;-58
2023/10/03 02:11:05;;;;;;;54.92;25.52;;;;;;;;;;5074514;28;20040;-58
2023/10/03 02:13:32;;;;;;;51.47;25.75;;;;;;;;;;5073208;28;20238;-58
2023/10/03 02:15:58;;;;;;;51.53;24.38;;;;;;;;;;5086947;28;20135;-57
2023/10/03 02:18:24;;;;;;;51.65;24.10;;;;;;;;;;5072556;28;20036;-58
2023/10/03 02:20:52;;;;;;;49.28;24.27;;;;;;;;;;5081212;28;20086;-58
2023/10/03 02:23:25;;;;;;;48.63;23.67;;;;;;;;;;5075578;28;20119;-58
2023/10/03 02:25:55;;;;;;;43.25;22.02;;;;;;;;;;5071031;28;20056;-58
2023/10/03 02:28:21;;;;;;;46.67;21.95;;;;;;;;;;5073775;28;20404;-58
2023/10/03 02:30:48;;;;;;;48.25;23.60;;;;;;;;;;5063842;28;20180;-58
2023/10/03 02:33:15;;;;;;;46.83;22.50;;;;;;;;;;5075061;28;20185;-58
2023/10/03 02:35:42;;;;;;;46.53;22.50;;;;;;;;;;5077703;28;20066;-58
2023/10/03 02:38:10;;;;;;;41.53;21.67;;;;;;;;;;5072921;28;20032;-58
2023/10/03 02:40:36;;;;;;;49.60;22.83;;;;;;;;;;5069799;28;20191;-58
2023/10/03 02:43:04;;;;;;;49.30;22.35;;;;;;;;;;5074555;28;20048;-58
2023/10/03 02:45:30;;;;;;;47.65;22.33;;;;;;;;;;5074233;28;20456;-58
2023/10/03 02:47:58;;;;;;;45.22;20.98;;;;;;;;;;5075791;28;20040;-58
2023/10/03 02:50:26;;;;;;;43.42;20.90;;;;;;;;;;5073840;28;20098;-58
2023/10/03 02:52:52;;;;;;;40.78;19.55;;;;;;;;;;5082351;28;20504;-58
2023/10/03 02:55:19;;;;;;;42.47;20.83;;;;;;;;;;5091278;28;20040;-58
2023/10/03 02:57:45;;;;;;;45.50;21.25;;;;;;;;;;5075396;28;20059;-58
2023/10/03 03:00:12;;;;;;;44.92;21.00;;;;;;;;;;5073110;28;20127;-59
2023/10/03 03:02:41;;;;;;;42.92;20.20;;;;;;;;;;5073682;28;20040;-58
2023/10/03 03:05:09;;;;;;;46.33;20.08;;;;;;;;;;5072245;28;20052;-58
2023/10/03 03:07:35;;;;;;;41.42;19.38;;;;;;;;;;5066598;28;20049;-58
2023/10/03 03:10:02;;;;;;;43.05;19.60;;;;;;;;;;5086305;28;20120;-58
2023/10/03 03:12:28;;;;;;;42.63;18.90;;;;;;;;;;5086808;28;20035;-58
2023/10/03 03:14:55;;;;;;;42.03;19.45;;;;;;;;;;5079742;28;20093;-58
2023/10/03 03:17:21;;;;;;;35.25;18.00;;;;;;;;;;5071583;28;20040;-58
2023/10/03 03:19:49;;;;;;;50.50;21.00;;;;;;;;;;5077122;28;20044;-58
2023/10/03 03:22:15;;;;;;;39.33;18.98;;;;;;;;;;5072931;28;20052;-58
2023/10/03 03:24:42;;;;;;;37.88;19.38;;;;;;;;;;5070408;28;20051;-58
2023/10/03 03:27:11;;;;;;;40.90;19.35;;;;;;;;;;5072726;28;20251;-58
2023/10/03 03:29:38;;;;;;;42.60;20.27;;;;;;;;;;5075812;28;20064;-58
2023/10/03 03:32:04;;;;;;;43.85;19.50;;;;;;;;;;5076634;28;20067;-58
2023/10/03 03:34:31;;;;;;;40.78;18.98;;;;;;;;;;5075441;28;20088;-58
2023/10/03 03:37:15;;;;;;;37.92;17.77;;;;;;;;;;5072130;28;20368;-58
2023/10/03 03:42:39;;;;;;;39.20;19.25;;;;;;;;;;5052833;28;20059;-58
2023/10/03 03:45:06;;;;;;;39.75;18.67;;;;;;;;;;5073025;28;20123;-58
2023/10/03 03:47:33;;;;;;;38.20;18.73;;;;;;;;;;5072859;28;20076;-58
2023/10/03 03:50:10;;;;;;;38.58;19.55;;;;;;;;;;5074730;28;20060;-57
2023/10/03 03:52:36;;;;;;;38.70;19.00;;;;;;;;;;5069471;28;20045;-57
2023/10/03 03:55:04;;;;;;;38.92;18.25;;;;;;;;;;5077844;28;20135;-58
2023/10/03 03:57:30;;;;;;;39.10;18.27;;;;;;;;;;5088750;28;20047;-59
2023/10/03 03:59:56;;;;;;;35.15;18.02;;;;;;;;;;5076557;28;20571;-58
2023/10/03 04:02:24;;;;;;;37.20;17.67;;;;;;;;;;5093269;28;20050;-58
2023/10/03 04:04:50;;;;;;;40.25;17.45;;;;;;;;;;5063469;28;20052;-58
2023/10/03 04:07:16;;;;;;;38.15;17.08;;;;;;;;;;5086806;28;21611;-58
2023/10/03 04:09:42;;;;;;;37.22;17.05;;;;;;;;;;5091784;28;20059;-58
2023/10/03 04:12:09;;;;;;;35.80;16.42;;;;;;;;;;5075268;28;20108;-59
2023/10/03 04:14:36;;;;;;;39.45;17.67;;;;;;;;;;5079456;28;20088;-58
2023/10/03 04:17:03;;;;;;;37.15;16.73;;;;;;;;;;5074604;28;20056;-58
2023/10/03 04:19:29;;;;;;;40.47;17.08;;;;;;;;;;5075284;28;20387;-58
2023/10/03 04:21:56;;;;;;;36.97;17.23;;;;;;;;;;5081195;28;20048;-58
2023/10/03 04:24:22;;;;;;;36.88;16.52;;;;;;;;;;5082219;28;20416;-58
2023/10/03 04:26:50;;;;;;;40.90;17.92;;;;;;;;;;5073055;28;20135;-58
2023/10/03 04:29:17;;;;;;;32.55;16.40;;;;;;;;;;5085603;28;20055;-58
2023/10/03 04:31:44;;;;;;;31.95;16.08;;;;;;;;;;5083993;28;20126;-58
2023/10/03 04:34:11;;;;;;;37.55;17.55;;;;;;;;;;5076219;28;20904;-58
2023/10/03 04:36:37;;;;;;;35.03;16.58;;;;;;;;;;5076989;28;20044;-58
2023/10/03 04:39:04;;;;;;;40.97;18.10;;;;;;;;;;5079177;28;20055;-58
2023/10/03 04:41:30;;;;;;;35.20;16.33;;;;;;;;;;5078447;28;20063;-58
2023/10/03 04:43:56;;;;;;;37.60;15.60;;;;;;;;;;5083389;28;20070;-58
2023/10/03 04:46:22;;;;;;;43.08;17.45;;;;;;;;;;5073736;28;20143;-58
2023/10/03 04:48:50;;;;;;;36.30;15.52;;;;;;;;;;5086516;28;20345;-58
2023/10/03 04:51:17;;;;;;;45.60;16.35;;;;;;;;;;5072621;28;20085;-58
2023/10/03 04:53:43;;;;;;;41.55;17.70;;;;;;;;;;5079716;28;20044;-59
2023/10/03 04:56:09;;;;;;;35.40;15.57;;;;;;;;;;5070964;28;20106;-58
2023/10/03 04:58:35;;;;;;;42.28;16.55;;;;;;;;;;5075857;28;21050;-58
2023/10/03 05:01:02;;;;;;;40.35;18.00;;;;;;;;;;5072128;28;20159;-58
2023/10/03 05:03:28;;;;;;;51.63;19.10;;;;;;;;;;5092286;28;20036;-58
2023/10/03 05:05:54;;;;;;;54.63;19.52;;;;;;;;;;5084050;28;20032;-58
2023/10/03 05:08:21;;;;;;;45.38;18.48;;;;;;;;;;5081301;28;20140;-58
2023/10/03 05:10:47;;;;;;;50.67;19.58;;;;;;;;;;5075515;28;20234;-58
2023/10/03 05:13:13;;;;;;;48.20;19.30;;;;;;;;;;5068279;28;20102;-58
2023/10/03 05:15:39;;;;;;;50.55;20.05;;;;;;;;;;5061578;28;20538;-58
2023/10/03 05:18:06;;;;;;;49.67;20.70;;;;;;;;;;5068517;28;20047;-58
2023/10/03 05:20:37;;;;;;;50.15;20.77;;;;;;;;;;5071859;28;20166;-58
2023/10/03 05:23:04;;;;;;;49.15;22.00;;;;;;;;;;5072925;28;20044;-58
2023/10/03 05:25:30;;;;;;;55.65;21.23;;;;;;;;;;5069341;28;20115;-59
2023/10/03 05:27:56;;;;;;;57.92;23.95;;;;;;;;;;5068528;28;20052;-58
2023/10/03 05:30:25;;;;;;;53.33;20.70;;;;;;;;;;5072605;28;20127;-58
2023/10/03 05:32:51;;;;;;;53.83;20.52;;;;;;;;;;5061365;28;20090;-58
2023/10/03 05:35:17;;;;;;;49.83;20.20;;;;;;;;;;5076116;28;20048;-58
2023/10/03 05:37:43;;;;;;;51.85;21.98;;;;;;;;;;5089490;28;20066;-58
2023/10/03 05:40:15;;;;;;;53.20;23.30;;;;;;;;;;5088900;28;20056;-58
2023/10/03 05:42:45;;;;;;;48.33;20.85;;;;;;;;;;5074083;28;20094;-58
2023/10/03 05:45:14;;;;;;;50.17;22.40;;;;;;;;;;5092829;28;20047;-58
2023/10/03 05:47:44;;;;;;;49.22;23.17;;;;;;;;;;5092401;28;20119;-58
2023/10/03 05:50:10;;;;;;;50.40;23.17;;;;;;;;;;5091730;28;20085;-58
2023/10/03 05:52:37;;;;;;;47.05;22.15;;;;;;;;;;5070213;28;20052;-58
2023/10/03 05:55:03;;;;;;;48.35;23.75;;;;;;;;;;5070719;28;20098;-58
2023/10/03 05:57:33;;;;;;;44.35;22.65;;;;;;;;;;5076206;28;20068;-57
2023/10/03 06:00:00;;;;;;;46.03;23.30;;;;;;;;;;5090309;28;20046;-57
2023/10/03 06:02:26;;;;;;;40.88;21.42;;;;;;;;;;5080577;28;20079;-58
2023/10/03 06:04:54;;;;;;;43.97;21.30;;;;;;;;;;5086220;28;20078;-58
2023/10/03 06:07:20;;;;;;;38.92;20.00;;;;;;;;;;5078980;28;20036;-59
2023/10/03 06:09:46;;;;;;;36.92;18.77;;;;;;;;;;5085861;28;20052;-59
2023/10/03 06:12:12;;;;;;;36.90;19.52;;;;;;;;;;5084143;28;20531;-59
2023/10/03 06:14:40;;;;;;;34.80;19.23;;;;;;;;;;5090660;28;20052;-59
2023/10/03 06:17:07;;;;;;;36.88;19.52;;;;;;;;;;5091135;28;20055;-59
2023/10/03 06:19:35;;;;;;;39.15;19.90;;;;;;;;;;5091266;28;20048;-60
2023/10/03 06:22:02;;;;;;;33.33;16.33;;;;;;;;;;5068012;28;20047;-59
2023/10/03 06:24:29;;;;;;;33.22;17.25;;;;;;;;;;5065342;28;20049;-59
2023/10/03 06:26:55;;;;;;;40.63;17.08;;;;;;;;;;5066869;28;20059;-59
2023/10/03 06:29:23;;;;;;;37.97;14.23;;;;;;;;;;5065947;28;20049;-59
2023/10/03 06:31:51;;;;;;;47.15;15.38;;;;;;;;;;5065780;28;20043;-59
2023/10/03 06:34:18;;;;;;;55.92;14.13;;;;;;;;;;5063705;28;20040;-59
2023/10/03 06:36:44;;;;;;;40.63;13.63;;;;;;;;;;5063791;28;20057;-59
2023/10/03 06:39:12;;;;;;;46.00;13.82;;;;;;;;;;5061425;28;20090;-59
2023/10/03 06:41:38;;;;;;;39.35;13.00;;;;;;;;;;5059487;28;20045;-59
2023/10/03 06:44:04;;;;;;;38.13;10.80;;;;;;;;;;5061439;28;20040;-59
2023/10/03 06:46:32;;;;;;;46.38;11.85;;;;;;;;;;5060281;28;20080;-59
2023/10/03 06:48:58;;;;;;;34.50;8.45;;;;;;;;;;5060455;28;20177;-59
2023/10/03 06:51:24;;;;;;;27.52;8.70;;;;;;;;;;5061209;28;20396;-59
2023/10/03 06:53:52;;;;;;;38.38;9.40;;;;;;;;;;5058197;28;20116;-59
2023/10/03 06:56:20;;;;;;;31.77;9.85;;;;;;;;;;5057488;28;20130;-59
2023/10/03 06:58:46;;;;;;;28.52;7.40;;;;;;;;;;5059002;28;20056;-59
2023/10/03 07:01:13;;;;;;;24.42;5.90;;;;;;;;;;5059869;28;20056;-59
2023/10/03 07:03:42;;;;;;;30.65;6.93;;;;;;;;;;5060061;28;21852;-59
2023/10/03 07:06:08;;;;;;;20.95;5.43;;;;;;;;;;5061712;28;20150;-59
2023/10/03 07:08:35;;;;;;;28.98;7.53;;;;;;;;;;5059788;28;20060;-59
2023/10/03 07:11:02;;;;;;;23.38;5.40;;;;;;;;;;5058047;28;20076;-58
2023/10/03 07:13:29;;;;;;;20.67;4.70;;;;;;;;;;5060103;28;20047;-59
2023/10/03 07:15:58;;;;;;;21.15;4.60;;;;;;;;;;5060901;28;20044;-59
2023/10/03 07:18:24;;;;;;;19.63;4.45;;;;;;;;;;5060748;28;20511;-59
2023/10/03 07:20:51;;;;;;;18.52;3.55;;;;;;;;;;5059714;28;20037;-59
2023/10/03 07:23:19;;;;;;;16.42;3.60;;;;;;;;;;5061828;28;20382;-59
2023/10/03 07:25:46;;;;;;;15.02;3.47;;;;;;;;;;5060612;28;20056;-59
2023/10/03 07:28:13;;;;;;;14.93;3.08;;;;;;;;;;5061528;28;20061;-59
2023/10/03 07:30:41;;;;;;;13.52;3.33;;;;;;;;;;5058724;28;20048;-59
2023/10/03 07:33:08;;;;;;;13.13;2.63;;;;;;;;;;5057509;28;20048;-59
2023/10/03 07:35:37;;;;;;;8.90;2.17;;;;;;;;;;5059078;28;20095;-59
2023/10/03 07:38:04;;;;;;;10.10;1.98;;;;;;;;;;5062430;28;20064;-59
2023/10/03 07:40:30;;;;;;;15.18;1.92;;;;;;;;;;5060225;28;20354;-59
2023/10/03 07:42:56;;;;;;;15.98;3.35;;;;;;;;;;5059366;28;20060;-58
2023/10/03 07:45:22;;;;;;;12.40;2.45;;;;;;;;;;5061034;28;20062;-59
2023/10/03 07:47:50;;;;;;;11.23;2.33;;;;;;;;;;5068406;28;20044;-59
2023/10/03 07:50:18;;;;;;;10.43;1.73;;;;;;;;;;5067857;28;20434;-60
2023/10/03 07:52:44;;;;;;;10.80;2.10;;;;;;;;;;5068851;28;20096;-67
2023/10/03 07:55:11;;;;;;;8.57;2.10;;;;;;;;;;5066529;28;20507;-59
2023/10/03 07:57:41;;;;;;;12.23;1.83;;;;;;;;;;5064396;28;20140;-59
2023/10/03 08:00:09;;;;;;;13.48;2.10;;;;;;;;;;5070201;28;20052;-59
2023/10/03 08:02:35;;;;;;;12.38;2.17;;;;;;;;;;5069523;28;20040;-59
2023/10/03 08:05:01;;;;;;;10.27;1.70;;;;;;;;;;5069191;28;20049;-59
2023/10/03 08:07:28;;;;;;;11.23;1.70;;;;;;;;;;5069605;28;20040;-59
2023/10/03 08:09:55;;;;;;;8.57;1.60;;;;;;;;;;5050466;28;20120;-59
2023/10/03 08:12:24;;;;;;;13.88;1.75;;;;;;;;;;5067337;28;20040;-59
2023/10/03 08:14:54;;;;;;;9.55;1.40;;;;;;;;;;5068969;28;20055;-59
2023/10/03 08:17:20;;;;;;;9.55;1.90;;;;;;;;;;5069413;28;20103;-59
2023/10/03 08:19:49;;;;;;;12.13;1.15;;;;;;;;;;5069834;28;20449;-59
2023/10/03 08:22:15;;;;;;;9.57;1.23;;;;;;;;;;5069025;28;20108;-59
2023/10/03 08:24:43;;;;;;;10.55;1.30;;;;;;;;;;5067910;28;20427;-58
2023/10/03 08:27:19;;;;;;;7.30;1.05;;;;;;;;;;5069769;28;20377;-58
2023/10/03 08:29:50;;;;;;;5.38;1.00;;;;;;;;;;5070120;28;20056;-58
2023/10/03 08:32:17;;;;;;;9.57;1.27;;;;;;;;;;5083416;28;20048;-59
2023/10/03 08:34:46;;;;;;;7.07;0.95;;;;;;;;;;5075640;28;20072;-59
2023/10/03 08:37:19;;;;;;;8.27;1.10;;;;;;;;;;5084449;28;20044;-59
2023/10/03 08:39:46;;;;;;;10.25;1.13;;;;;;;;;;5089791;28;20043;-59
2023/10/03 08:42:13;;;;;;;5.18;0.80;;;;;;;;;;5090101;28;20127;-59
2023/10/03 08:44:42;;;;;;;8.25;1.23;;;;;;;;;;5084543;28;20070;-59
2023/10/03 08:47:11;;;;;;;8.32;1.27;;;;;;;;;;5089747;28;20047;-59
2023/10/03 08:49:39;;;;;;;11.43;1.30;;;;;;;;;;5093690;28;20048;-59
2023/10/03 08:52:09;;;;;;;5.35;1.05;;;;;;;;;;5082719;28;20048;-59
2023/10/03 08:54:37;;;;;;;6.50;0.80;;;;;;;;;;5081173;28;20045;-59
2023/10/03 08:57:11;;;;;;;7.03;1.35;;;;;;;;;;5092408;28;20032;-59
2023/10/03 08:59:41;;;;;;;;;;;;;;;;;;5088728;28;20032;-59
2023/10/03 09:02:11;;;;;;;5.90;0.88;;;;;;;;;;5087931;28;19921;-59
2023/10/03 09:04:39;;;;;;;6.28;1.40;;;;;;;;;;5069945;28;20404;-59
2023/10/03 09:07:11;;;;;;;3.78;1.05;;;;;;;;;;5069153;28;20049;-59
2023/10/03 09:09:42;;;;;;;7.03;1.67;;;;;;;;;;5073057;28;20119;-73
2023/10/03 09:12:08;;;;;;;5.63;1.33;;;;;;;;;;5069176;28;20052;-59
2023/10/03 09:14:38;;;;;;;10.18;1.63;;;;;;;;;;5086965;28;20116;-59
2023/10/03 09:17:04;;;;;;;5.00;1.13;;;;;;;;;;5077316;28;20032;-72
2023/10/03 09:19:44;;;;;;;9.30;1.65;;;;;;;;;;5074036;28;20049;-59
2023/10/03 09:22:10;;;;;;;11.02;2.28;;;;;;;;;;5084395;28;20055;-59
2023/10/03 09:24:43;;;;;;;8.75;1.60;;;;;;;;;;5093342;28;20071;-59
2023/10/03 09:27:11;;;;;;;7.97;1.67;;;;;;;;;;5080395;28;20093;-59
2023/10/03 09:29:37;;;;;;;7.85;1.45;;;;;;;;;;5079755;28;20051;-59
2023/10/03 09:32:12;;;;;;;8.68;1.30;;;;;;;;;;5091695;28;20124;-59
2023/10/03 09:34:40;;;;;;;6.57;1.38;;;;;;;;;;5089790;28;20097;-59
2023/10/03 09:37:07;;;;;;;7.43;1.70;;;;;;;;;;5083192;28;20043;-59
2023/10/03 09:39:47;;;;;;;5.07;1.38;;;;;;;;;;5077438;28;20036;-59
2023/10/03 09:42:17;;;;;;;13.07;1.48;;;;;;;;;;5092017;28;20048;-59
2023/10/03 09:44:44;;;;;;;6.57;1.45;;;;;;;;;;5076507;28;20075;-59
2023/10/03 09:47:12;;;;;;;5.85;1.60;;;;;;;;;;5077065;28;20115;-59
2023/10/03 09:49:39;;;;;;;7.35;1.60;;;;;;;;;;5066123;28;20043;-59
2023/10/03 09:52:17;;;;;;;7.78;1.80;;;;;;;;;;5066347;28;20037;-59
2023/10/03 09:54:44;;;;;;;10.02;1.90;;;;;;;;;;5060602;28;20500;-59
2023/10/03 09:57:16;;;;;;;10.40;1.90;;;;;;;;;;5061038;28;20033;-58
2023/10/03 09:59:45;;;;;;;14.80;2.40;;;;;;;;;;5068812;28;20076;-59
2023/10/03 10:02:14;;;;;;;15.77;1.58;;;;;;;;;;5069207;28;20439;-59
2023/10/03 10:04:41;;;;;;;11.02;1.40;;;;;;;;;;5066338;28;20122;-59
2023/10/03 10:07:17;;;;;;;8.38;1.58;;;;;;;;;;5061687;28;20040;-58
2023/10/03 10:09:52;;;;;;;7.50;1.40;;;;;;;;;;5060824;28;20123;-59
2023/10/03 10:12:19;;;;;;;10.90;2.20;;;;;;;;;;5061405;28;20064;-59
2023/10/03 10:15:14;;;;;;;7.13;1.30;;;;;;;;;;5063223;28;20114;-59
2023/10/03 10:17:41;;;;;;;7.13;1.90;;;;;;;;;;5054511;28;20086;-59
2023/10/03 10:20:21;;;;;;;7.95;1.67;;;;;;;;;;5062620;28;20040;-60
2023/10/03 10:23:01;;;;;;;6.68;1.60;;;;;;;;;;5061595;28;20178;-59
2023/10/03 10:25:28;;;;;;;10.75;1.60;;;;;;;;;;5060811;28;20533;-59
2023/10/03 10:28:06;;;;;;;5.90;1.08;;;;;;;;;;5062015;28;20096;-59
2023/10/03 10:30:33;;;;;;;13.30;1.80;;;;;;;;;;5064095;28;20059;-58
2023/10/03 10:33:18;;;;;;;8.30;2.08;;;;;;;;;;5064343;28;20060;-59
2023/10/03 10:35:50;;;;;;;5.63;1.63;;;;;;;;;;5061730;28;20068;-58
2023/10/03 10:38:17;;;;;;;11.75;2.42;;;;;;;;;;5062468;28;20104;-59
2023/10/03 10:41:33;;;;;;;8.73;1.88;;;;;;;;;;5062567;28;20055;-59
2023/10/03 10:44:16;;;;;;;7.97;2.10;;;;;;;;;;5057789;28;20099;-59
2023/10/03 10:46:44;;;;;;;10.48;2.00;;;;;;;;;;5059881;28;20044;-59
2023/10/03 10:49:48;;;;;;;11.95;2.22;;;;;;;;;;5062509;28;20048;-59
2023/10/03 10:52:17;;;;;;;8.80;2.60;;;;;;;;;;5020510;28;20080;-59
2023/10/03 10:54:44;;;;;;;9.68;2.10;;;;;;;;;;5055071;28;20157;-59
2023/10/03 10:57:11;;;;;;;8.45;2.58;;;;;;;;;;5060796;28;20459;-59
2023/10/03 10:59:43;;;;;;;9.10;2.28;;;;;;;;;;5061870;28;20040;-59
2023/10/03 11:02:22;;;;;;;7.03;2.20;;;;;;;;;;5059184;28;20056;-59
2023/10/03 11:04:55;;;;;;;10.75;2.80;;;;;;;;;;5059432;28;20057;-59
2023/10/03 11:07:26;;;;;;;13.00;2.85;;;;;;;;;;5061604;28;20079;-59
2023/10/03 11:09:54;;;;;;;13.95;3.65;;;;;;;;;;5060788;28;20099;-59
2023/10/03 11:12:26;;;;;;;14.90;2.85;;;;;;;;;;5062305;28;20147;-59
2023/10/03 11:14:54;;;;;;;9.73;2.70;;;;;;;;;;5062172;28;20090;-59
2023/10/03 11:17:20;;;;;;;11.30;3.85;;;;;;;;;;5062337;28;20131;-59
2023/10/03 11:19:48;;;;;;;9.18;2.40;;;;;;;;;;5059393;28;20045;-58
2023/10/03 11:22:15;;;;;;;20.05;3.10;;;;;;;;;;5061759;28;20041;-59
2023/10/03 11:24:42;;;;;;;10.05;2.95;;;;;;;;;;5062386;28;20465;-59
2023/10/03 11:27:09;;;;;;;7.57;2.50;;;;;;;;;;5060115;28;20484;-59
2023/10/03 11:29:38;;;;;;;10.35;2.95;;;;;;;;;;5062341;28;20041;-59
2023/10/03 11:32:05;;;;;;;8.48;2.45;;;;;;;;;;5061210;28;20052;-59
2023/10/03 11:34:34;;;;;;;9.55;2.50;;;;;;;;;;5062440;28;20076;-59
2023/10/03 11:37:04;;;;;;;11.90;3.17;;;;;;;;;;5062982;28;20044;-59
2023/10/03 11:39:38;;;;;;;12.27;2.92;;;;;;;;;;5062232;28;20071;-59
2023/10/03 11:42:08;;;;;;;10.20;2.72;;;;;;;;;;5061995;28;20048;-59
2023/10/03 11:44:36;;;;;;;10.32;2.85;;;;;;;;;;5061339;28;20067;-59
2023/10/03 11:47:03;;;;;;;10.32;2.72;;;;;;;;;;5062226;28;20044;-59
2023/10/03 11:49:30;;;;;;;11.77;2.95;;;;;;;;;;5060805;28;20053;-59
2023/10/03 11:51:56;;;;;;;10.23;2.50;;;;;;;;;;5061192;28;20100;-59
2023/10/03 11:54:22;;;;;;;8.50;2.10;;;;;;;;;;5059087;28;20136;-59
2023/10/03 11:56:48;;;;;;;8.55;2.50;;;;;;;;;;5060938;28;20472;-58
2023/10/03 11:59:15;;;;;;;9.65;2.53;;;;;;;;;;5059651;28;20048;-59
2023/10/03 12:01:42;;;;;;;12.18;2.53;;;;;;;;;;5062555;28;20119;-59
2023/10/03 12:04:09;;;;;;;13.23;2.55;;;;;;;;;;5067591;28;20043;-59
2023/10/03 12:06:37;;;;;;;18.83;3.15;;;;;;;;;;5068558;28;20067;-59
2023/10/03 12:09:08;;;;;;;11.40;2.47;;;;;;;;;;5064770;28;20041;-59
2023/10/03 12:11:35;;;;;;;17.13;4.03;;;;;;;;;;5068727;28;20056;-59
2023/10/03 12:14:01;;;;;;;10.27;2.55;;;;;;;;;;5069341;28;20178;-59
2023/10/03 12:16:27;;;;;;;13.25;2.35;;;;;;;;;;5067608;28;20055;-59
2023/10/03 12:18:53;;;;;;;12.02;2.15;;;;;;;;;;5069050;28;21097;-58
2023/10/03 12:21:19;;;;;;;12.48;3.63;;;;;;;;;;5072913;28;20036;-59
2023/10/03 12:23:46;;;;;;;7.28;2.38;;;;;;;;;;5080038;28;20048;-59
2023/10/03 12:26:12;;;;;;;8.98;2.08;;;;;;;;;;5073814;28;20048;-58
2023/10/03 12:28:38;;;;;;;11.20;2.45;;;;;;;;;;5071584;28;20128;-59
2023/10/03 12:31:05;;;;;;;14.70;2.50;;;;;;;;;;5075421;28;20165;-58
2023/10/03 12:33:32;;;;;;;11.35;2.25;;;;;;;;;;5078830;28;20471;-58
2023/10/03 12:36:04;;;;;;;21.85;3.03;;;;;;;;;;5076601;28;20048;-58
2023/10/03 12:38:31;;;;;;;9.43;2.30;;;;;;;;;;5091478;28;20052;-58
2023/10/03 12:40:57;;;;;;;16.15;3.20;;;;;;;;;;5074870;28;20072;-59
2023/10/03 12:43:25;;;;;;;10.00;2.38;;;;;;;;;;5071026;28;20036;-57
2023/10/03 12:45:52;;;;;;;8.45;2.15;;;;;;;;;;5077902;28;20040;-58
2023/10/03 12:48:19;;;;;;;12.50;2.58;;;;;;;;;;5077588;28;20040;-57
2023/10/03 12:50:45;;;;;;;14.80;2.95;;;;;;;;;;5076515;28;20059;-58
2023/10/03 12:53:11;;;;;;;14.27;2.30;;;;;;;;;;5072915;28;20075;-57
2023/10/03 12:55:38;;;;;;;10.25;2.38;;;;;;;;;;5083629;28;20077;-58
2023/10/03 12:58:04;;;;;;;11.27;2.33;;;;;;;;;;5086499;28;20128;-58
2023/10/03 13:00:30;;;;;;;11.95;2.65;;;;;;;;;;5091594;28;20051;-58
2023/10/03 13:03:00;;;;;;;14.45;3.78;;;;;;;;;;5077810;28;20081;-57
2023/10/03 13:05:27;;;;;;;14.20;2.42;;;;;;;;;;5089486;28;20107;-57
2023/10/03 13:07:53;;;;;;;8.07;2.17;;;;;;;;;;5079035;28;20094;-58
2023/10/03 13:10:20;;;;;;;12.15;2.25;;;;;;;;;;5079471;28;20044;-58
2023/10/03 13:12:48;;;;;;;13.55;2.55;;;;;;;;;;5069802;28;20044;-58
2023/10/03 13:15:15;;;;;;;9.75;2.03;;;;;;;;;;5083771;28;20406;-58
2023/10/03 13:17:42;;;;;;;11.98;2.47;;;;;;;;;;5082620;28;20069;-58
2023/10/03 13:20:11;;;;;;;12.27;2.05;;;;;;;;;;5090767;28;20047;-58
2023/10/03 13:22:44;;;;;;;12.85;2.33;;;;;;;;;;5079825;28;20081;-58
2023/10/03 13:25:11;;;;;;;6.38;1.65;;;;;;;;;;5091332;28;20466;-58
2023/10/03 13:27:37;;;;;;;8.93;2.05;;;;;;;;;;5091171;28;20052;-58
2023/10/03 13:30:08;;;;;;;10.23;1.92;;;;;;;;;;5091626;28;20047;-58
2023/10/03 13:32:34;;;;;;;12.90;3.42;;;;;;;;;;5083924;28;20151;-58
2023/10/03 13:35:02;;;;;;;11.57;2.35;;;;;;;;;;5065742;28;20484;-58
2023/10/03 13:37:29;;;;;;;9.35;2.20;;;;;;;;;;5077709;28;20146;-58
2023/10/03 13:39:55;;;;;;;12.60;2.60;;;;;;;;;;5072019;28;20063;-57
2023/10/03 13:42:21;;;;;;;10.05;2.13;;;;;;;;;;5086565;28;20492;-57
2023/10/03 13:44:52;;;;;;;11.38;2.00;;;;;;;;;;5075833;28;20119;-58
2023/10/03 13:47:20;;;;;;;10.52;2.00;;;;;;;;;;5064186;28;20083;-57
2023/10/03 13:49:46;;;;;;;12.90;2.65;;;;;;;;;;5084851;28;20089;-58
2023/10/03 13:52:13;;;;;;;9.82;2.22;;;;;;;;;;5079378;28;20143;-58
2023/10/03 13:54:42;;;;;;;10.25;2.03;;;;;;;;;;5081991;28;20056;-58
2023/10/03 13:57:08;;;;;;;10.73;2.63;;;;;;;;;;5073861;28;20059;-57
2023/10/03 13:59:36;;;;;;;13.18;2.13;;;;;;;;;;5071401;28;20043;-58
2023/10/03 14:02:03;;;;;;;15.60;2.95;;;;;;;;;;5073119;28;20071;-58
2023/10/03 14:04:31;;;;;;;10.90;2.30;;;;;;;;;;5077296;28;20119;-57
2023/10/03 14:06:58;;;;;;;9.45;2.85;;;;;;;;;;5073382;28;20496;-58
2023/10/03 14:09:26;;;;;;;13.00;2.72;;;;;;;;;;5082979;28;20518;-58
2023/10/03 14:12:05;;;;;;;9.88;2.58;;;;;;;;;;5077877;28;20407;-57
2023/10/03 14:14:34;;;;;;;8.07;1.95;;;;;;;;;;5082475;28;20360;-58
2023/10/03 14:17:00;;;;;;;23.33;4.68;;;;;;;;;;5072979;28;20063;-58
2023/10/03 14:19:38;;;;;;;12.35;2.65;;;;;;;;;;5081770;28;20040;-57
2023/10/03 14:22:05;;;;;;;13.38;2.97;;;;;;;;;;5077889;28;20047;-58
2023/10/03 14:24:31;;;;;;;11.82;3.03;;;;;;;;;;5078879;28;20052;-57
2023/10/03 14:26:59;;;;;;;10.25;2.55;;;;;;;;;;5084582;28;20086;-57
2023/10/03 14:29:25;;;;;;;15.07;2.45;;;;;;;;;;5079314;28;20060;-58
2023/10/03 14:31:51;;;;;;;14.18;3.03;;;;;;;;;;5085600;28;20048;-58
2023/10/03 14:34:17;;;;;;;15.30;3.65;;;;;;;;;;5084802;28;20059;-58